createdAt,value
2023-11-09T00:00:10.785Z,99323.91
2023-11-09T00:02:58.567Z,99321.31
2023-11-09T00:05:26.558Z,99320.10
2023-11-09T00:07:54.617Z,99325.45
2023-11-09T00:10:22.977Z,99321.98
2023-11-09T00:12:52.601Z,99324.05
2023-11-09T00:15:21.815Z,99321.63
2023-11-09T00:17:49.976Z,99320.77
2023-11-09T00:20:18.089Z,99320.23
2023-11-09T00:22:47.760Z,99320.23
2023-11-09T00:25:15.603Z,99317.80
2023-11-09T00:27:43.432Z,99316.24
2023-11-09T00:30:11.200Z,99319.52
2023-11-09T00:32:38.882Z,99321.78
2023-11-09T00:35:06.915Z,99322.48
2023-11-09T00:37:34.794Z,99321.77
2023-11-09T00:40:02.641Z,99322.46
2023-11-09T00:42:30.631Z,99322.98
2023-11-09T00:44:58.784Z,99321.93
2023-11-09T00:47:26.598Z,99322.45
2023-11-09T00:49:55.055Z,99321.06
2023-11-09T00:52:23.273Z,99319.34
2023-11-09T00:54:52.706Z,99318.30
2023-11-09T00:57:25.718Z,99318.48
2023-11-09T00:59:53.590Z,99317.10
2023-11-09T01:02:21.960Z,99315.20
2023-11-09T01:04:49.778Z,99314.33
2023-11-09T01:07:18.185Z,99311.89
2023-11-09T01:09:47.198Z,99313.80
2023-11-09T01:12:15.203Z,99316.90
2023-11-09T01:14:45.189Z,99314.44
2023-11-09T01:17:12.950Z,99313.21
2023-11-09T01:19:40.779Z,99317.20
2023-11-09T01:22:08.748Z,99314.61
2023-11-09T01:24:36.549Z,99313.75
2023-11-09T01:27:04.314Z,99316.71
2023-11-09T01:29:32.089Z,99314.47
2023-11-09T01:32:00.085Z,99316.55
2023-11-09T01:34:27.995Z,99316.73
2023-11-09T01:36:55.917Z,99315.34
2023-11-09T01:39:24.497Z,99314.64
2023-11-09T01:41:52.675Z,99316.23
2023-11-09T01:44:20.411Z,99315.69
2023-11-09T01:46:54.702Z,99313.09
2023-11-09T01:49:22.801Z,99314.14
2023-11-09T01:51:55.749Z,99315.73
2023-11-09T01:54:24.060Z,99315.57
2023-11-09T01:56:52.231Z,99312.79
2023-11-09T01:59:19.998Z,99314.52
2023-11-09T02:01:47.867Z,99316.61
2023-11-09T02:04:15.667Z,99314.88
2023-11-09T02:06:43.769Z,99315.05
2023-11-09T02:09:11.572Z,99311.20
2023-11-09T02:11:39.642Z,99312.05
2023-11-09T02:14:07.402Z,99308.91
2023-11-09T02:16:35.665Z,99310.45
2023-11-09T02:19:04.507Z,99310.77
2023-11-09T02:21:32.786Z,99313.04
2023-11-09T02:24:00.520Z,99315.78
2023-11-09T02:26:28.374Z,99319.59
2023-11-09T02:28:56.341Z,99315.42
2023-11-09T02:31:24.139Z,99316.81
2023-11-09T02:33:52.023Z,99317.65
2023-11-09T02:36:20.589Z,99315.03
2023-11-09T02:38:48.528Z,99314.66
2023-11-09T02:41:16.294Z,99313.42
2023-11-09T02:43:44.585Z,99313.05
2023-11-09T02:46:13.069Z,99314.77
2023-11-09T02:48:42.238Z,99313.19
2023-11-09T02:51:10.233Z,99315.98
2023-11-09T02:53:38.796Z,99316.48
2023-11-09T02:56:09.529Z,99314.21
2023-11-09T02:58:37.300Z,99313.69
2023-11-09T03:01:05.109Z,99316.64
2023-11-09T03:03:33.539Z,99319.42
2023-11-09T03:06:01.436Z,99315.42
2023-11-09T03:08:29.782Z,99319.59
2023-11-09T03:10:57.559Z,99318.35
2023-11-09T03:13:25.404Z,99317.63
2023-11-09T03:15:53.290Z,99318.63
2023-11-09T03:18:21.575Z,99326.20
2023-11-09T03:20:49.427Z,99325.11
2023-11-09T03:23:17.191Z,99323.73
2023-11-09T03:25:44.957Z,99325.43
2023-11-09T03:28:12.731Z,99325.73
2023-11-09T03:30:40.690Z,99318.25
2023-11-09T03:33:10.841Z,99323.45
2023-11-09T03:35:38.579Z,99324.82
2023-11-09T03:38:06.347Z,99324.63
2023-11-09T03:40:34.125Z,99326.01
2023-11-09T03:43:01.991Z,99324.09
2023-11-09T03:45:29.934Z,99325.61
2023-11-09T03:47:57.779Z,99320.92
2023-11-09T03:50:25.670Z,99320.08
2023-11-09T03:52:54.395Z,99320.78
2023-11-09T03:55:22.356Z,99317.80
2023-11-09T03:57:50.090Z,99316.59
2023-11-09T04:00:20.067Z,99317.09
2023-11-09T04:02:48.015Z,99312.77
2023-11-09T04:05:15.850Z,99306.51
2023-11-09T04:07:44.736Z,99310.30
2023-11-09T04:10:14.199Z,99304.39
2023-11-09T04:12:41.996Z,99301.94
2023-11-09T04:15:10.821Z,99297.58
2023-11-09T04:17:38.591Z,99295.31
2023-11-09T04:20:08.175Z,99298.30
2023-11-09T04:22:36.817Z,99293.28
2023-11-09T04:25:05.161Z,99296.06
2023-11-09T04:27:36.095Z,99299.18
2023-11-09T04:30:04.740Z,99294.34
2023-11-09T04:32:33.652Z,99295.90
2023-11-09T04:35:01.474Z,99293.46
2023-11-09T04:37:30.121Z,99294.33
2023-11-09T04:40:00.005Z,99291.70
2023-11-09T04:42:31.028Z,99290.45
2023-11-09T04:44:58.844Z,99288.35
2023-11-09T04:47:27.111Z,99288.84
2023-11-09T04:50:03.416Z,99285.88
2023-11-09T04:52:32.364Z,99288.34
2023-11-09T04:55:12.354Z,99291.48
2023-11-09T04:57:59.356Z,99291.63
2023-11-09T05:00:47.257Z,99289.89
2023-11-09T05:03:34.762Z,99289.88
2023-11-09T05:06:32.121Z,99291.23
2023-11-09T05:08:59.995Z,99292.92
2023-11-09T05:11:29.598Z,99292.39
2023-11-09T05:13:57.365Z,99290.27
2023-11-09T05:16:25.544Z,99291.61
2023-11-09T05:18:53.508Z,99289.50
2023-11-09T05:21:22.395Z,99288.59
2023-11-09T05:23:50.167Z,99290.65
2023-11-09T05:26:18.127Z,99292.06
2023-11-09T05:28:46.450Z,99290.67
2023-11-09T05:31:14.284Z,99290.84
2023-11-09T05:33:42.074Z,99286.16
2023-11-09T05:36:09.924Z,99287.37
2023-11-09T05:38:37.769Z,99285.97
2023-11-09T05:41:05.740Z,99288.73
2023-11-09T05:43:33.429Z,99291.33
2023-11-09T05:46:01.202Z,99297.19
2023-11-09T05:48:28.985Z,99297.16
2023-11-09T05:50:58.753Z,99300.09
2023-11-09T05:53:27.938Z,99296.42
2023-11-09T05:55:55.708Z,99295.54
2023-11-09T05:58:23.948Z,99295.23
2023-11-09T06:00:53.584Z,99290.94
2023-11-09T06:03:22.420Z,99284.18
2023-11-09T06:05:51.994Z,99285.92
2023-11-09T06:08:20.565Z,99285.06
2023-11-09T06:10:50.823Z,99286.98
2023-11-09T06:13:20.280Z,99289.92
2023-11-09T06:15:48.677Z,99289.41
2023-11-09T06:18:17.789Z,99289.59
2023-11-09T06:20:48.429Z,99282.84
2023-11-09T06:23:16.265Z,99279.38
2023-11-09T06:25:44.608Z,99279.56
2023-11-09T06:28:12.796Z,99280.44
2023-11-09T06:30:40.684Z,99280.10
2023-11-09T06:33:10.832Z,99282.60
2023-11-09T06:35:40.412Z,99286.77
2023-11-09T06:38:09.913Z,99289.02
2023-11-09T06:40:37.638Z,99287.50
2023-11-09T06:43:05.517Z,99291.52
2023-11-09T06:45:33.312Z,99289.96
2023-11-09T06:48:01.115Z,99290.15
2023-11-09T06:50:28.992Z,99291.20
2023-11-09T06:52:57.220Z,99295.21
2023-11-09T06:55:26.094Z,99290.88
2023-11-09T06:57:58.416Z,99294.52
2023-11-09T07:00:26.555Z,99291.77
2023-11-09T07:02:58.749Z,99293.34
2023-11-09T07:05:27.203Z,99295.08
2023-11-09T07:07:57.799Z,99294.58
2023-11-09T07:10:25.653Z,99302.61
2023-11-09T07:12:53.564Z,99301.60
2023-11-09T07:15:21.785Z,99300.76
2023-11-09T07:17:49.538Z,99303.61
2023-11-09T07:20:17.368Z,99307.30
2023-11-09T07:22:45.136Z,99302.13
2023-11-09T07:25:14.197Z,99300.42
2023-11-09T07:27:42.309Z,99300.47
2023-11-09T07:30:10.072Z,99298.05
2023-11-09T07:32:37.827Z,99300.16
2023-11-09T07:35:06.821Z,99300.02
2023-11-09T07:37:34.619Z,99301.07
2023-11-09T07:40:04.719Z,99301.95
2023-11-09T07:42:32.703Z,99299.02
2023-11-09T07:45:00.444Z,99296.96
2023-11-09T07:47:29.045Z,99294.44
2023-11-09T07:49:58.337Z,99295.00
2023-11-09T07:52:27.275Z,99294.52
2023-11-09T07:54:56.015Z,99289.86
2023-11-09T07:57:24.072Z,99287.83
2023-11-09T07:59:51.851Z,99291.36
2023-11-09T08:02:21.137Z,99286.87
2023-11-09T08:04:49.625Z,99288.13
2023-11-09T08:07:17.399Z,99281.73
2023-11-09T08:09:45.146Z,99282.27
2023-11-09T08:12:13.050Z,99279.34
2023-11-09T08:14:40.983Z,99272.41
2023-11-09T08:17:16.154Z,99267.73
2023-11-09T08:19:50.927Z,99257.52
2023-11-09T08:22:18.965Z,99258.80
2023-11-09T08:24:47.194Z,99253.95
2023-11-09T08:27:14.958Z,99257.95
2023-11-09T08:29:42.726Z,99258.48
2023-11-09T08:32:11.764Z,99258.84
2023-11-09T08:34:41.752Z,99265.96
2023-11-09T08:37:11.900Z,99264.59
2023-11-09T08:39:39.925Z,99263.37
2023-11-09T08:42:07.791Z,99260.42
2023-11-09T08:44:37.398Z,99256.09
2023-11-09T08:47:05.104Z,99255.05
2023-11-09T08:49:33.004Z,99262.88
2023-11-09T08:52:05.776Z,99264.26
2023-11-09T08:54:33.677Z,99268.42
2023-11-09T08:57:01.545Z,99263.53
2023-11-09T08:59:32.229Z,99264.56
2023-11-09T09:02:03.345Z,99263.85
2023-11-09T09:04:31.415Z,99265.58
2023-11-09T09:06:59.187Z,99260.34
2023-11-09T09:09:34.527Z,99258.75
2023-11-09T09:12:11.102Z,99254.90
2023-11-09T09:14:38.933Z,99254.36
2023-11-09T09:17:06.875Z,99252.42
2023-11-09T09:19:35.173Z,99244.58
2023-11-09T09:22:05.298Z,99242.65
2023-11-09T09:24:33.062Z,99240.01
2023-11-09T09:27:00.826Z,99237.20
2023-11-09T09:29:31.054Z,99231.61
2023-11-09T09:31:59.877Z,99226.89
2023-11-09T09:34:27.823Z,99227.57
2023-11-09T09:36:59.960Z,99222.52
2023-11-09T09:39:29.285Z,99226.00
2023-11-09T09:42:00.383Z,99222.36
2023-11-09T09:44:28.181Z,99218.86
2023-11-09T09:46:56.968Z,99217.95
2023-11-09T09:49:27.300Z,99217.58
2023-11-09T09:51:56.085Z,99211.09
2023-11-09T09:54:25.075Z,99212.64
2023-11-09T09:56:55.189Z,99211.03
2023-11-09T09:59:23.879Z,99207.33
2023-11-09T10:01:51.840Z,99202.76
2023-11-09T10:04:20.180Z,99201.51
2023-11-09T10:06:48.203Z,99199.54
2023-11-09T10:09:16.743Z,99193.04
2023-11-09T10:11:44.849Z,99188.96
2023-11-09T10:14:13.249Z,99185.56
2023-11-09T10:16:42.664Z,99181.84
2023-11-09T10:19:11.053Z,99178.08
2023-11-09T10:21:39.493Z,99180.95
2023-11-09T10:24:07.668Z,99177.73
2023-11-09T10:26:35.977Z,99174.52
2023-11-09T10:29:05.200Z,99172.73
2023-11-09T10:31:33.133Z,99170.91
2023-11-09T10:34:02.160Z,99166.83
2023-11-09T10:36:30.171Z,99168.20
2023-11-09T10:38:57.939Z,99169.93
2023-11-09T10:41:53.791Z,99165.52
2023-11-09T10:44:19.479Z,99157.80
2023-11-09T10:46:47.205Z,99153.57
2023-11-09T10:49:15.177Z,99156.99
2023-11-09T10:51:45.734Z,99154.18
2023-11-09T10:54:13.504Z,99151.52
2023-11-09T10:56:41.206Z,99145.89
2023-11-09T10:59:10.104Z,99141.81
2023-11-09T11:01:38.133Z,99140.51
2023-11-09T11:04:09.916Z,99130.67
2023-11-09T11:06:38.184Z,99132.60
2023-11-09T11:09:09.822Z,99122.15
2023-11-09T11:11:38.095Z,99115.30
2023-11-09T11:14:06.985Z,99114.41
2023-11-09T11:16:35.121Z,99114.41
2023-11-09T11:19:08.032Z,99108.69
2023-11-09T11:21:37.590Z,99105.41
2023-11-09T11:24:06.233Z,99103.70
2023-11-09T11:26:47.868Z,99107.45
2023-11-09T11:29:22.559Z,99104.67
2023-11-09T11:31:50.522Z,99100.99
2023-11-09T11:34:18.319Z,99104.13
2023-11-09T11:36:49.219Z,99105.52
2023-11-09T11:39:22.460Z,99109.48
2023-11-09T11:41:51.668Z,99102.09
2023-11-09T11:44:24.407Z,99102.04
2023-11-09T11:46:59.532Z,99102.86
2023-11-09T11:49:27.301Z,99100.02
2023-11-09T11:51:55.156Z,99100.37
2023-11-09T11:54:23.844Z,99102.30
2023-11-09T11:56:53.142Z,99093.92
2023-11-09T11:59:24.038Z,99089.42
2023-11-09T12:01:52.536Z,99086.85
2023-11-09T12:04:20.428Z,99086.20
2023-11-09T12:06:48.387Z,99082.41
2023-11-09T12:09:16.983Z,99084.19
2023-11-09T12:11:45.493Z,99076.91
2023-11-09T12:14:13.679Z,99073.95
2023-11-09T12:16:41.749Z,99071.85
2023-11-09T12:19:13.873Z,99068.04
2023-11-09T12:21:42.194Z,99065.27
2023-11-09T12:24:14.943Z,99058.11
2023-11-09T12:26:44.075Z,99063.52
2023-11-09T12:29:12.264Z,99058.65
2023-11-09T12:31:40.094Z,99056.39
2023-11-09T12:34:09.227Z,99055.38
2023-11-09T12:36:39.214Z,99053.48
2023-11-09T12:39:25.995Z,99052.30
2023-11-09T12:41:54.072Z,99049.25
2023-11-09T12:44:23.061Z,99049.98
2023-11-09T12:46:50.843Z,99047.75
2023-11-09T12:49:18.645Z,99040.61
2023-11-09T12:51:48.501Z,99038.55
2023-11-09T12:54:16.272Z,99032.13
2023-11-09T12:56:46.387Z,99031.30
2023-11-09T12:59:16.199Z,99033.98
2023-11-09T13:01:44.901Z,99031.61
2023-11-09T13:04:23.435Z,99033.06
2023-11-09T13:06:51.471Z,99030.98
2023-11-09T13:09:39.690Z,99028.78
2023-11-09T13:12:26.685Z,99032.17
2023-11-09T13:15:12.727Z,99023.70
2023-11-09T13:17:54.426Z,99028.82
2023-11-09T13:20:30.685Z,99024.34
2023-11-09T13:23:06.744Z,99022.53
2023-11-09T13:25:36.205Z,99015.77
2023-11-09T13:28:05.444Z,99015.12
2023-11-09T13:30:35.096Z,99015.86
2023-11-09T13:33:15.671Z,99013.42
2023-11-09T13:35:49.005Z,99010.69
2023-11-09T13:38:31.110Z,99003.58
2023-11-09T13:41:13.751Z,98998.58
2023-11-09T13:43:50.455Z,98996.69
2023-11-09T13:46:24.046Z,98994.97
2023-11-09T13:48:52.511Z,98990.46
2023-11-09T13:51:28.565Z,98993.83
2023-11-09T13:54:19.436Z,98990.92
2023-11-09T13:57:02.358Z,98991.13
2023-11-09T13:59:33.196Z,98988.21
2023-11-09T14:02:00.960Z,98985.27
2023-11-09T14:04:32.497Z,98979.01
2023-11-09T14:07:03.271Z,98978.85
2023-11-09T14:09:38.280Z,98976.96
2023-11-09T14:12:13.620Z,98979.08
2023-11-09T14:14:47.740Z,98975.83
2023-11-09T14:17:19.316Z,98975.34
2023-11-09T14:19:55.561Z,98970.48
2023-11-09T14:22:25.478Z,98969.31
2023-11-09T14:24:55.325Z,98961.17
2023-11-09T14:27:29.705Z,98961.89
2023-11-09T14:29:58.999Z,98965.25
2023-11-09T14:32:27.874Z,98964.92
2023-11-09T14:34:56.114Z,98957.98
2023-11-09T14:37:24.232Z,98957.66
2023-11-09T14:40:10.946Z,98960.13
2023-11-09T14:42:39.113Z,98957.88
2023-11-09T14:45:07.203Z,98952.00
2023-11-09T14:47:43.744Z,98946.48
2023-11-09T14:50:20.829Z,98947.20
2023-11-09T14:52:58.256Z,98943.73
2023-11-09T14:55:29.076Z,98939.39
2023-11-09T14:57:59.194Z,98936.63
2023-11-09T15:00:28.391Z,98933.70
2023-11-09T15:02:57.720Z,98933.89
2023-11-09T15:05:29.458Z,98932.16
2023-11-09T15:07:59.275Z,98928.35
2023-11-09T15:10:27.373Z,98923.52
2023-11-09T15:12:55.341Z,98919.02
2023-11-09T15:15:23.785Z,98915.43
2023-11-09T15:17:51.866Z,98915.46
2023-11-09T15:20:28.529Z,98913.91
2023-11-09T15:23:01.064Z,98914.64
2023-11-09T15:25:32.509Z,98915.01
2023-11-09T15:28:02.301Z,98911.89
2023-11-09T15:30:31.408Z,98914.52
2023-11-09T15:33:01.671Z,98911.59
2023-11-09T15:35:29.393Z,98912.30
2023-11-09T15:38:00.834Z,98911.44
2023-11-09T15:41:09.912Z,98907.11
2023-11-09T15:43:19.849Z,98909.22
2023-11-09T15:45:53.103Z,98911.13
2023-11-09T15:48:21.026Z,98914.96
2023-11-09T15:50:51.109Z,98916.73
2023-11-09T15:53:18.916Z,98914.48
2023-11-09T15:55:47.282Z,98918.66
2023-11-09T15:58:16.290Z,98917.80
2023-11-09T16:00:47.365Z,98911.90
2023-11-09T16:03:15.378Z,98916.42
2023-11-09T16:05:43.980Z,98917.83
2023-11-09T16:08:12.070Z,98919.91
2023-11-09T16:10:41.853Z,98913.67
2023-11-09T16:13:09.634Z,98915.93
2023-11-09T16:15:37.396Z,98915.06
2023-11-09T16:18:06.024Z,98914.91
2023-11-09T16:20:36.291Z,98911.28
2023-11-09T16:23:07.643Z,98914.77
2023-11-09T16:25:35.810Z,98917.36
2023-11-09T16:28:07.933Z,98917.20
2023-11-09T16:30:39.144Z,98921.20
2023-11-09T16:33:09.655Z,98918.92
2023-11-09T16:35:38.185Z,98921.36
2023-11-09T16:38:06.438Z,98925.52
2023-11-09T16:40:35.749Z,98924.63
2023-11-09T16:43:04.528Z,98917.17
2023-11-09T16:45:32.503Z,98927.27
2023-11-09T16:48:00.418Z,98926.38
2023-11-09T16:50:28.314Z,98925.70
2023-11-09T16:52:56.031Z,98926.58
2023-11-09T16:55:24.164Z,98925.37
2023-11-09T16:57:52.429Z,98921.55
2023-11-09T17:00:20.192Z,98920.85
2023-11-09T17:02:49.031Z,98916.88
2023-11-09T17:05:18.101Z,98920.38
2023-11-09T17:07:47.047Z,98924.22
2023-11-09T17:10:18.221Z,98925.11
2023-11-09T17:12:45.986Z,98927.73
2023-11-09T17:15:14.833Z,98932.77
2023-11-09T17:17:43.511Z,98934.33
2023-11-09T17:20:12.044Z,98929.80
2023-11-09T17:22:40.664Z,98932.74
2023-11-09T17:25:09.636Z,98933.10
2023-11-09T17:27:37.623Z,98936.23
2023-11-09T17:30:13.128Z,98933.80
2023-11-09T17:32:41.690Z,98929.98
2023-11-09T17:35:10.495Z,98932.23
2023-11-09T17:37:39.021Z,98923.37
2023-11-09T17:40:12.781Z,98921.64
2023-11-09T17:42:40.975Z,98923.56
2023-11-09T17:45:08.718Z,98921.66
2023-11-09T17:47:39.653Z,98917.34
2023-11-09T17:50:09.784Z,98920.46
2023-11-09T17:52:38.481Z,98919.42
2023-11-09T17:55:06.538Z,98918.91
2023-11-09T17:57:34.860Z,98919.77
2023-11-09T18:00:02.846Z,98918.20
2023-11-09T18:02:30.826Z,98913.52
2023-11-09T18:04:58.661Z,98912.48
2023-11-09T18:07:26.506Z,98911.09
2023-11-09T18:09:54.559Z,98907.10
2023-11-09T18:12:22.455Z,98910.22
2023-11-09T18:14:50.815Z,98914.38
2023-11-09T18:17:18.633Z,98914.58
2023-11-09T18:19:46.635Z,98913.52
2023-11-09T18:22:14.716Z,98919.41
2023-11-09T18:24:42.474Z,98926.19
2023-11-09T18:27:10.248Z,98926.18
2023-11-09T18:29:38.105Z,98926.01
2023-11-09T18:32:05.965Z,98927.05
2023-11-09T18:34:34.062Z,98930.17
2023-11-09T18:37:01.807Z,98927.92
2023-11-09T18:39:31.313Z,98918.02
2023-11-09T18:41:59.486Z,98920.46
2023-11-09T18:44:27.256Z,98923.08
2023-11-09T18:46:55.202Z,98924.80
2023-11-09T18:51:54.539Z,98929.33
2023-11-09T18:54:22.302Z,98929.48
2023-11-09T18:56:50.165Z,98927.92
2023-11-09T18:59:17.932Z,98930.36
2023-11-09T19:01:45.845Z,98924.46
2023-11-09T19:06:44.428Z,98923.25
2023-11-09T19:09:13.287Z,98921.52
2023-11-09T19:11:43.604Z,98921.85
2023-11-09T19:14:11.685Z,98924.98
2023-11-09T19:16:39.429Z,98924.45
2023-11-09T19:19:07.257Z,98926.17
2023-11-09T19:24:06.020Z,98919.08
2023-11-09T19:26:33.783Z,98921.33
2023-11-09T19:29:01.558Z,98921.50
2023-11-09T19:31:29.241Z,98922.02
2023-11-09T19:33:57.690Z,98920.29
2023-11-09T19:36:26.887Z,98921.16
2023-11-09T19:38:55.607Z,98922.02
2023-11-09T19:41:23.338Z,98914.58
2023-11-09T19:43:51.511Z,98915.79
2023-11-09T19:46:21.257Z,98913.88
2023-11-09T19:48:49.117Z,98913.88
2023-11-09T19:51:16.994Z,98910.05
2023-11-09T19:53:45.498Z,98905.20
2023-11-09T19:56:13.336Z,98903.64
2023-11-09T19:58:41.372Z,98908.81
2023-11-09T20:01:09.184Z,98902.91
2023-11-09T20:03:37.105Z,98900.84
2023-11-09T20:06:05.108Z,98898.77
2023-11-09T20:08:32.947Z,98898.58
2023-11-09T20:11:01.738Z,98897.37
2023-11-09T20:13:29.627Z,98898.05
2023-11-09T20:15:57.859Z,98904.48
2023-11-09T20:18:25.751Z,98899.61
2023-11-09T20:20:53.605Z,98896.15
2023-11-09T20:23:21.371Z,98888.67
2023-11-09T20:25:49.566Z,98887.27
2023-11-09T20:28:18.437Z,98887.63
2023-11-09T20:30:46.210Z,98884.16
2023-11-09T20:33:14.041Z,98882.42
2023-11-09T20:35:41.951Z,98881.04
2023-11-09T20:38:13.086Z,98877.91
2023-11-09T20:40:40.945Z,98876.02
2023-11-09T20:43:10.241Z,98865.23
2023-11-09T20:45:39.897Z,98859.34
2023-11-09T20:48:10.883Z,98861.43
2023-11-09T20:50:38.964Z,98862.28
2023-11-09T20:53:07.552Z,98862.81
2023-11-09T20:55:36.131Z,98861.27
2023-11-09T20:58:06.062Z,98857.10
2023-11-09T21:00:35.837Z,98856.23
2023-11-09T21:03:05.809Z,98849.80
2023-11-09T21:05:36.116Z,98848.73
2023-11-09T21:08:03.981Z,98847.00
2023-11-09T21:10:33.566Z,98852.05
2023-11-09T21:13:02.266Z,98847.19
2023-11-09T21:15:30.151Z,98845.11
2023-11-09T21:17:59.485Z,98846.51
2023-11-09T21:20:28.010Z,98838.86
2023-11-09T21:22:55.771Z,98838.53
2023-11-09T21:25:23.536Z,98834.38
2023-11-09T21:27:51.812Z,98824.50
2023-11-09T21:30:19.651Z,98823.80
2023-11-09T21:32:47.589Z,98823.12
2023-11-09T21:35:18.462Z,98819.15
2023-11-09T21:37:46.620Z,98813.08
2023-11-09T21:40:16.244Z,98805.30
2023-11-09T21:42:44.383Z,98801.84
2023-11-09T21:45:15.469Z,98803.57
2023-11-09T21:47:43.747Z,98807.39
2023-11-09T21:50:11.664Z,98811.38
2023-11-09T21:52:39.382Z,98821.96
2023-11-09T21:55:10.423Z,98818.83
2023-11-09T21:57:39.579Z,98822.27
2023-11-09T22:00:08.537Z,98820.02
2023-11-09T22:02:36.403Z,98821.23
2023-11-09T22:05:04.673Z,98819.86
2023-11-09T22:07:32.523Z,98818.64
2023-11-09T22:10:01.880Z,98816.38
2023-11-09T22:12:29.989Z,98815.50
2023-11-09T22:14:58.087Z,98814.45
2023-11-09T22:17:26.159Z,98818.29
2023-11-09T22:19:53.909Z,98810.14
2023-11-09T22:22:21.669Z,98813.59
2023-11-09T22:24:50.294Z,98811.00
2023-11-09T22:27:19.356Z,98812.20
2023-11-09T22:29:47.224Z,98809.79
2023-11-09T22:32:14.978Z,98809.79
2023-11-09T22:34:42.769Z,98802.86
2023-11-09T22:37:11.755Z,98802.52
2023-11-09T22:39:39.891Z,98800.80
2023-11-09T22:42:10.725Z,98798.52
2023-11-09T22:44:38.612Z,98796.61
2023-11-09T22:47:07.103Z,98792.98
2023-11-09T22:49:34.758Z,98793.16
2023-11-09T22:52:02.643Z,98793.52
2023-11-09T22:54:31.984Z,98788.86
2023-11-09T22:56:59.892Z,98780.36
2023-11-09T22:59:27.656Z,98769.45
2023-11-09T23:01:55.446Z,98769.29
2023-11-09T23:04:23.354Z,98768.09
2023-11-09T23:06:51.157Z,98767.05
2023-11-09T23:09:19.514Z,98765.67
2023-11-09T23:11:47.533Z,98761.17
2023-11-09T23:14:15.367Z,98760.66
2023-11-09T23:16:43.161Z,98753.21
2023-11-09T23:19:11.000Z,98752.69
2023-11-09T23:21:40.636Z,98749.40
2023-11-09T23:24:08.491Z,98749.58
2023-11-09T23:26:36.346Z,98748.54
2023-11-09T23:29:04.219Z,98748.54
2023-11-09T23:31:32.000Z,98745.92
2023-11-09T23:34:02.000Z,98745.92
2023-11-09T23:36:30.352Z,98748.17
2023-11-09T23:38:58.241Z,98744.69
2023-11-09T23:41:25.999Z,98740.88
2023-11-09T23:43:53.762Z,98741.39
2023-11-09T23:46:21.564Z,98742.92
2023-11-09T23:48:49.423Z,98740.83
2023-11-09T23:51:18.432Z,98737.00
2023-11-09T23:53:46.463Z,98739.07
2023-11-09T23:56:14.226Z,98733.35
2023-11-09T23:58:41.993Z,98731.09
